Latest Weather Observations for Wynyard

IDT60801

Issued at 8:03 pm EDT Wednesday 1 April 2015 (issued every 30 minutes, with the page automatically refreshed every 10 minutes)

About weather observations | Map of weather stations | Latest weather observations for TAS | Other Formats
Station Details ID: 091107 Name: WYNYARD AIRPORT Lat: -41.00 Lon: 145.73 Height: 12.0 m
Data from the previous 72 hours. | See also: Recent months at Wynyard
Date/Time
EDT
Temp
°C
App
Temp
°C
Dew
Point
Rel
Hum
%
Delta-T
°C
Wind Press
QNH
hPa
Press
MSL
hPa
Rain
since 9 am
mm
Dir
 
Spd
km/h
Gust
km/h
Spd
kts
Gust
kts
01/08:00pm 16.2 17.8 16.0 99 0.1 E 2 6 1 3 1009.5 1009.5 0.0
01/07:30pm 16.5 17.9 16.3 99 0.1 SE 4 7 2 4 1009.4 1009.4 0.0
01/07:00pm 16.8 18.3 16.6 99 0.1 ENE 4 9 2 5 1009.7 1009.7 0.0
01/06:30pm 17.0 17.9 16.7 98 0.2 SE 7 7 4 4 1010.3 1010.3 0.0
01/06:00pm 17.1 16.8 16.5 96 0.4 E 13 15 7 8 1010.3 1010.3 0.0
01/05:30pm 17.6 17.3 16.5 93 0.7 E 13 17 7 9 1010.6 1010.6 0.0
01/05:00pm 17.7 16.8 16.9 95 0.5 E 17 26 9 14 1010.4 1010.4 0.0
01/04:30pm 18.1 17.6 16.9 93 0.7 E 15 22 8 12 1011.1 1011.1 0.0
01/04:00pm 17.8 16.7 16.3 91 0.9 ENE 17 24 9 13 1011.7 1011.7 0.0
01/03:30pm 18.5 17.3 17.0 91 0.9 E 19 26 10 14 1012.0 1012.0 0.0
01/03:00pm 18.4 17.8 16.6 89 1.1 E 15 20 8 11 1012.6 1012.6 0.0
01/02:30pm 18.1 17.0 16.3 89 1.1 E 17 22 9 12 1013.0 1013.0 0.0
01/02:21pm 18.1 16.6 16.4 90 1.0 E 19 26 10 14 1013.2 1013.2 0.0
01/02:00pm 18.9 17.5 16.9 88 1.2 E 20 26 11 14 1013.6 1013.6 0.0
01/01:33pm 18.4 17.3 16.4 88 1.2 E 17 24 9 13 1014.5 1014.5 0.0
01/01:30pm 18.2 17.0 16.2 88 1.2 E 17 24 9 13 1014.6 1014.6 0.0
01/01:29pm 18.2 16.7 16.2 88 1.2 E 19 24 10 13 1014.5 1014.5 0.0
01/01:00pm 17.5 15.1 15.3 87 1.3 ESE 22 28 12 15 1015.0 1015.0 0.0
01/12:30pm 17.7 16.0 15.7 88 1.2 E 19 26 10 14 1015.4 1015.4 0.0
01/12:00pm 17.1 15.6 15.4 90 1.0 E 17 24 9 13 1016.1 1016.2 0.0
01/11:30am 16.8 15.3 15.2 90 0.9 E 17 22 9 12 1016.2 1016.3 0.0
01/11:00am 16.5 15.0 15.2 92 0.8 E 17 24 9 13 1017.0 1017.0 0.0
01/10:30am 16.2 14.9 14.9 92 0.7 E 15 22 8 12 1017.4 1017.3 0.0
01/10:00am 15.7 15.1 14.6 93 0.6 E 11 17 6 9 1017.9 1017.8 0.0
01/09:30am 15.6 14.6 14.6 94 0.6 E 13 17 7 9 1018.0 1017.9 0.0
01/09:00am 14.5 13.8 14.3 99 0.1 ESE 11 15 6 8 1018.0 1017.9 0.0
01/08:30am 12.6 12.2 12.4 99 0.1 SW 6 7 3 4 1018.4 1018.3 0.0
01/08:00am 12.0 11.2 11.8 99 0.1 WNW 7 9 4 5 1018.3 1018.2 0.0
01/07:30am 11.4 10.6 11.2 99 0.1 WNW 6 9 3 5 1018.5 1018.4 0.0
01/07:00am 11.2 10.2 11.0 99 0.1 W 7 9 4 5 1018.7 1018.6 0.0
01/06:30am 10.8 9.7 10.6 99 0.1 WNW 7 9 4 5 1018.9 1018.8 0.0
01/05:30am 10.4 8.8 10.2 99 0.1 WNW 9 11 5 6 1019.5 1019.4 0.0
01/05:14am 10.3 8.7 10.1 99 0.1 WNW 9 11 5 6 1019.5 1019.4 0.0
01/05:00am 10.0 8.3 9.9 99 0.1 W 9 9 5 5 1019.6 1019.5 0.0
01/04:46am 9.9 8.2 9.8 99 0.1 W 9 11 5 6 1019.8 1019.7 0.0
01/04:30am 9.8 8.1 9.8 100 0.0 WNW 9 11 5 6 1020.0 1019.9 0.0
01/04:11am 9.4 7.6 9.4 100 0.0 W 9 13 5 7 1020.2 1020.1 0.0
01/04:00am 9.0 7.6 8.9 99 0.0 W 6 9 3 5 1020.2 1020.1 0.0
01/03:30am 8.0 5.8 7.9 99 0.0 WNW 9 13 5 7 1020.8 1020.7 0.0
01/03:00am 8.1 5.6 8.0 99 0.0 WNW 11 13 6 7 1021.3 1021.2 0.0
01/02:30am 8.3 6.2 8.2 99 0.0 WNW 9 11 5 6 1021.6 1021.5 0.0
01/02:00am 7.9 5.7 7.8 99 0.0 W 9 11 5 6 1021.9 1021.8 0.0
01/01:30am 8.1 5.9 8.0 99 0.0 WNW 9 11 5 6 1022.1 1022.0 0.0
01/01:00am 8.4 6.3 8.3 99 0.0 W 9 11 5 6 1022.2 1022.1 0.0
01/12:30am 9.2 7.3 9.1 99 0.0 WSW 9 11 5 6 1022.3 1022.2 0.0
01/12:26am 8.7 6.7 8.6 99 0.0 SW 9 11 5 6 1022.4 1022.3 0.0
 
Date/Time
EDT
Temp
°C
App
Temp
°C
Dew
Point
Rel
Hum
%
Delta-T
°C
Wind Press
QNH
hPa
Press
MSL
hPa
Rain
since 9 am
mm
Dir
 
Spd
km/h
Gust
km/h
Spd
kts
Gust
kts
31/11:31pm 8.5 6.4 8.4 99 0.0 W 9 11 5 6 1023.0 1022.9 0.0
31/11:30pm 8.4 6.3 8.3 99 0.0 W 9 9 5 5 1023.0 1022.9 0.0
31/11:00pm 9.2 7.9 9.1 99 0.0 SW 6 9 3 5 1023.0 1022.9 0.0
31/10:30pm 9.9 9.9 9.8 99 0.1 CALM 0 0 0 0 1023.3 1023.2 0.0
31/10:00pm 10.3 9.2 10.1 99 0.1 WSW 6 9 3 5 1023.6 1023.5 0.0
31/09:30pm 10.7 9.8 10.5 99 0.1 WNW 6 9 3 5 1023.6 1023.5 0.0
31/09:00pm 11.4 10.3 10.8 96 0.3 WSW 7 11 4 6 1023.3 1023.2 0.0
31/08:30pm 12.1 10.7 11.0 93 0.6 WSW 9 11 5 6 1023.2 1023.1 0.0
31/08:00pm 14.6 13.4 11.7 83 1.6 NW 9 13 5 7 1023.0 1022.9 0.0
31/07:30pm 14.5 12.9 11.5 82 1.6 WNW 11 13 6 7 1022.7 1022.6 0.0
31/07:00pm 15.5 13.7 12.1 80 1.8 WNW 13 15 7 8 1022.6 1022.5 0.0
31/06:30pm 16.1 13.9 12.1 77 2.2 NW 15 19 8 10 1022.5 1022.4 0.0
31/06:00pm 16.4 13.4 12.0 75 2.4 NW 19 26 10 14 1022.4 1022.3 0.0
31/05:30pm 17.3 14.3 11.8 70 3.0 NW 19 28 10 15 1022.3 1022.2 0.0
31/05:00pm 17.2 14.0 11.9 71 2.9 NW 20 28 11 15 1022.3 1022.2 0.0
31/04:30pm 17.6 14.5 12.1 70 3.0 NW 20 28 11 15 1022.7 1022.6 0.0
31/04:00pm 17.6 14.8 12.7 73 2.7 NW 19 26 10 14 1023.1 1023.0 0.0
31/03:30pm 18.2 15.1 12.2 68 3.3 NW 20 24 11 13 1023.2 1023.1 0.0
31/03:00pm 18.7 16.3 12.5 67 3.4 NW 17 24 9 13 1023.6 1023.5 0.0
31/02:30pm 17.8 15.1 11.6 67 3.4 WNW 17 22 9 12 1023.9 1023.8 0.0
31/02:00pm 17.2 14.1 11.5 69 3.1 W 19 24 10 13 1024.3 1024.2 0.0
31/01:30pm 17.5 14.5 11.8 69 3.1 WNW 19 24 10 13 1024.7 1024.6 0.0
31/01:00pm 17.1 14.4 11.8 71 2.9 NW 17 22 9 12 1024.9 1024.8 0.0
31/12:30pm 16.9 15.1 12.0 73 2.7 W 13 17 7 9 1025.2 1025.1 0.0
31/12:00pm 16.3 13.5 11.2 72 2.7 W 17 20 9 11 1025.5 1025.5 0.0
31/11:30am 16.2 14.2 11.6 74 2.5 WSW 13 19 7 10 1025.6 1025.6 0.0
31/11:00am 16.0 14.1 11.8 76 2.3 W 13 19 7 10 1025.8 1025.8 0.0
31/10:30am 15.8 13.8 11.6 76 2.3 WSW 13 20 7 11 1025.8 1025.8 0.0
31/10:00am 15.5 13.2 11.7 78 2.0 W 15 19 8 10 1025.9 1025.9 0.0
31/09:30am 15.0 13.4 11.6 80 1.8 WSW 11 15 6 8 1025.9 1025.9 0.0
31/09:00am 14.3 13.3 12.3 88 1.1 WSW 9 11 5 6 1025.7 1025.7 0.0
31/08:30am 12.8 12.2 12.2 96 0.3 WNW 7 9 4 5 1025.6 1025.6 0.0
31/08:00am 12.1 11.0 11.8 98 0.2 WNW 9 11 5 6 1025.6 1025.6 0.0
31/07:30am 11.7 10.4 11.2 97 0.3 WNW 9 13 5 7 1025.2 1025.1 0.0
31/07:00am 11.8 10.5 11.3 97 0.3 WNW 9 11 5 6 1025.0 1024.9 0.0
31/06:30am 11.6 10.7 11.3 98 0.2 W 7 9 4 5 1024.8 1024.7 0.0
31/06:00am 11.5 10.6 11.2 98 0.2 WNW 7 11 4 6 1024.5 1024.4 0.0
31/05:30am 11.1 10.1 10.9 99 0.1 W 7 9 4 5 1024.4 1024.3 0.0
31/05:00am 10.8 9.7 10.6 99 0.1 W 7 11 4 6 1024.2 1024.1 0.0
31/04:30am 10.5 10.3 10.3 99 0.1 W 2 7 1 4 1024.3 1024.2 0.0
31/04:00am 10.0 8.7 9.9 99 0.1 WSW 7 9 4 5 1024.5 1024.4 0.0
31/03:30am 9.7 8.3 9.6 99 0.0 SW 7 9 4 5 1024.5 1024.4 0.0
31/03:00am 9.8 8.4 9.7 99 0.0 SW 7 11 4 6 1024.6 1024.5 0.0
31/02:30am 9.4 8.9 9.3 99 0.0 W 2 7 1 4 1024.7 1024.6 0.0
31/02:00am 8.4 6.7 8.3 99 0.0 SW 7 11 4 6 1024.8 1024.7 0.0
31/01:30am 8.3 6.2 8.2 99 0.0 W 9 11 5 6 1024.7 1024.6 0.0
31/01:00am 8.6 6.6 8.5 99 0.0 WSW 9 11 5 6 1024.7 1024.6 0.0
31/12:30am 8.3 6.6 8.2 99 0.0 SW 7 9 4 5 1024.7 1024.6 0.0
31/12:00am 8.8 6.8 8.7 99 0.0 SW 9 11 5 6 1024.9 1024.8 0.0
 
Date/Time
EDT
Temp
°C
App
Temp
°C
Dew
Point
Rel
Hum
%
Delta-T
°C
Wind Press
QNH
hPa
Press
MSL
hPa
Rain
since 9 am
mm
Dir
 
Spd
km/h
Gust
km/h
Spd
kts
Gust
kts
30/11:30pm 9.3 7.1 9.2 99 0.0 W 11 13 6 7 1025.0 1024.9 0.0
30/11:00pm 9.6 7.6 8.7 94 0.4 WSW 9 11 5 6 1024.9 1024.8 0.0
30/10:30pm 10.2 7.8 8.6 90 0.8 W 11 13 6 7 1024.9 1024.8 0.0
30/10:00pm 12.6 10.4 9.2 80 1.7 W 11 13 6 7 1024.9 1024.8 0.0
30/09:30pm 12.6 11.0 8.7 77 1.9 WSW 7 9 4 5 1024.9 1024.8 0.0
30/09:00pm 14.4 11.5 9.8 74 2.4 WSW 15 26 8 14 1024.5 1024.4 0.0
30/08:30pm 15.1 12.7 10.1 72 2.6 WSW 13 17 7 9 1024.5 1024.4 0.0
30/08:00pm 15.5 11.8 10.3 71 2.7 W 20 33 11 18 1023.9 1023.8 0.0
30/07:30pm 15.4 13.1 10.6 73 2.5 W 13 19 7 10 1023.5 1023.4 0.0
30/07:00pm 15.5 12.8 10.5 72 2.6 WSW 15 24 8 13 1023.2 1023.1 0.0
30/06:30pm 16.2 12.5 10.3 68 3.1 WSW 20 26 11 14 1022.6 1022.5 0.0
30/06:00pm 17.1 11.1 10.2 64 3.6 W 32 44 17 24 1022.1 1022.0 0.0
30/05:30pm 17.6 10.8 10.5 63 3.8 W 37 48 20 26 1021.8 1021.7 0.0
30/05:00pm 18.0 12.7 11.1 64 3.7 W 30 37 16 20 1021.6 1021.5 0.0
30/04:30pm 18.2 12.5 11.7 66 3.6 W 33 48 18 26 1021.8 1021.7 0.0
30/04:00pm 18.3 12.4 11.1 63 3.9 W 33 48 18 26 1021.5 1021.4 0.0
30/03:30pm 17.9 14.2 11.5 66 3.5 WSW 22 35 12 19 1021.6 1021.5 0.0
30/03:00pm 18.6 13.3 12.4 67 3.4 W 32 41 17 22 1021.8 1021.7 0.0
30/02:48pm 17.7 12.4 11.3 66 3.5 W 30 48 16 26 1021.8 1021.7 0.0
30/02:30pm 18.9 14.0 12.4 66 3.6 W 30 39 16 21 1021.7 1021.6 0.0
30/02:00pm 19.4 14.7 11.9 62 4.1 WSW 28 39 15 21 1021.7 1021.6 0.0
30/01:30pm 18.3 14.0 12.1 67 3.4 W 26 33 14 18 1022.0 1021.9 0.0
30/01:00pm 18.3 13.9 11.8 66 3.6 W 26 35 14 19 1022.0 1021.9 0.0
30/12:30pm 17.6 12.7 11.4 67 3.4 W 28 35 15 19 1022.2 1022.1 0.0
30/12:00pm 17.4 12.5 12.7 74 2.6 W 30 37 16 20 1022.2 1022.1 0.0
30/11:30am 17.6 15.6 14.9 84 1.6 WSW 19 22 10 12 1022.2 1022.1 0.0
30/11:00am 17.2 14.4 15.4 89 1.0 W 24 33 13 18 1022.0 1021.9 0.0
30/10:30am 16.6 14.3 15.6 94 0.6 W 22 30 12 16 1021.9 1021.8 0.0
30/10:00am 16.3 15.1 16.1 99 0.1 WNW 17 24 9 13 1021.5 1021.4 0.0
30/09:40am 15.9 14.6 15.7 99 0.1 WNW 17 20 9 11 1021.4 1021.3 0.0
30/09:30am 15.8 14.4 15.6 99 0.1 WNW 17 20 9 11 1021.3 1021.2 0.0
30/09:28am 15.8 14.4 15.6 99 0.1 WNW 17 20 9 11 1021.3 1021.2 0.0
30/09:12am 15.6 14.6 15.6 100 0.0 WNW 15 20 8 11 1021.2 1021.1 0.0
30/09:00am 15.4 14.3 15.4 100 0.0 WNW 15 19 8 10 1021.2 1021.1 5.2
30/08:56am 15.4 14.7 15.4 100 0.0 WNW 13 19 7 10 1021.1 1021.0 5.2
30/08:54am 15.3 14.6 15.3 100 0.0 WNW 13 19 7 10 1021.1 1021.0 5.2
30/08:37am 15.2 14.8 15.2 100 0.0 WNW 11 15 6 8 1021.0 1020.9 5.0
30/08:30am 15.0 14.9 15.0 100 0.0 WNW 9 13 5 7 1021.0 1020.9 5.0
30/08:22am 14.8 15.0 14.8 100 0.0 W 7 11 4 6 1021.0 1020.9 5.0
30/08:00am 14.5 14.8 14.5 100 0.0 WSW 6 9 3 5 1021.0 1020.9 5.0
30/07:30am 14.4 15.4 14.4 100 0.0 WSW 2 7 1 4 1020.7 1020.6 5.0
30/07:11am 14.3 15.7 14.3 100 0.0 CALM 0 0 0 0 1020.5 1020.4 5.0
30/07:01am 14.3 15.7 14.3 100 0.0 CALM 0 0 0 0 1020.4 1020.3 5.0
30/07:00am 14.3 15.7 14.3 100 0.0 CALM 0 0 0 0 1020.4 1020.3 5.0
30/06:56am 14.3 15.7 14.3 100 0.0 CALM 0 0 0 0 1020.3 1020.2 5.0
30/06:51am 14.3 15.7 14.3 100 0.0 CALM 0 6 0 3 1020.3 1020.2 5.0
30/06:40am 14.3 15.3 14.3 100 0.0 SSW 2 6 1 3 1020.3 1020.2 5.0
30/06:30am 14.3 14.3 14.3 100 0.0 SSW 7 9 4 5 1020.1 1020.0 5.0
30/06:29am 14.3 14.3 14.3 100 0.0 SSW 7 9 4 5 1020.1 1020.0 5.0
30/06:18am 14.2 14.2 14.2 100 0.0 SW 7 7 4 4 1020.1 1020.0 5.0
30/06:00am 14.2 14.4 14.2 100 0.0 NW 6 7 3 4 1020.0 1019.9 4.6
30/05:46am 14.4 14.7 14.4 100 0.0 WNW 6 7 3 4 1019.9 1019.8 4.6
30/05:30am 14.4 14.7 14.4 100 0.0 W 6 7 3 4 1020.1 1020.0 4.6
30/05:28am 14.4 14.7 14.4 100 0.0 W 6 7 3 4 1020.1 1020.0 4.6
30/05:00am 14.5 14.6 14.5 100 0.0 W 7 9 4 5 1020.0 1019.9 3.8
30/04:44am 14.5 14.6 14.5 100 0.0 WSW 7 9 4 5 1020.1 1020.0 3.4
30/04:43am 14.5 14.6 14.5 100 0.0 W 7 9 4 5 1020.1 1020.0 3.4
30/04:42am 14.6 14.8 14.6 100 0.0 W 7 9 4 5 1020.1 1020.0 3.4
30/04:30am 14.5 14.2 14.5 100 0.0 WSW 9 13 5 7 1020.0 1019.9 3.4
30/04:08am 14.7 14.8 14.5 99 0.1 W 7 9 4 5 1020.1 1020.0 2.2
30/04:00am 14.7 14.4 14.5 99 0.1 WSW 9 13 5 7 1020.1 1020.0 1.8
30/03:43am 14.9 14.3 14.6 98 0.2 WSW 11 17 6 9 1020.2 1020.1 0.4
30/03:30am 15.4 14.7 14.4 94 0.6 NW 11 13 6 7 1020.1 1020.0 0.0
30/03:29am 15.4 14.7 14.4 94 0.6 NW 11 13 6 7 1020.1 1020.0 0.0
30/03:00am 15.5 14.4 14.2 92 0.7 WNW 13 17 7 9 1020.2 1020.1 0.0
30/02:30am 15.5 14.4 14.2 92 0.7 WNW 13 19 7 10 1020.3 1020.2 0.0
30/02:08am 15.3 14.7 14.5 95 0.5 WNW 11 17 6 9 1020.4 1020.3 0.0
30/02:00am 15.4 14.3 14.4 94 0.6 WNW 13 17 7 9 1020.4 1020.3 0.0
30/01:51am 15.4 14.0 14.6 95 0.5 WNW 15 17 8 9 1020.4 1020.3 0.0
30/01:47am 15.4 14.0 14.6 95 0.5 WNW 15 20 8 11 1020.4 1020.3 0.0
30/01:32am 15.4 13.7 14.8 96 0.3 WNW 17 20 9 11 1020.4 1020.3 0.0
30/01:30am 15.4 13.7 14.8 96 0.3 WNW 17 20 9 11 1020.4 1020.3 0.0
30/01:18am 15.3 14.0 14.8 97 0.3 WNW 15 20 8 11 1020.4 1020.3 0.0
30/01:00am 15.2 13.6 14.9 98 0.2 WNW 17 20 9 11 1020.4 1020.3 0.0
30/12:51am 15.2 13.5 14.7 97 0.3 WNW 17 20 9 11 1020.4 1020.3 0.0
30/12:50am 15.2 13.5 14.7 97 0.3 WNW 17 24 9 13 1020.4 1020.3 0.0
30/12:36am 15.2 13.5 14.6 96 0.3 W 17 24 9 13 1020.5 1020.4 0.0
30/12:30am 15.2 13.1 14.6 96 0.3 W 19 24 10 13 1020.4 1020.3 0.0
30/12:00am 15.8 13.3 14.2 90 0.9 WNW 20 30 11 16 1020.5 1020.4 0.0
 
Date/Time
EDT
Temp
°C
App
Temp
°C
Dew
Point
Rel
Hum
%
Delta-T
°C
Wind Press
QNH
hPa
Press
MSL
hPa
Rain
since 9 am
mm
Dir
 
Spd
km/h
Gust
km/h
Spd
kts
Gust
kts
29/11:30pm 15.8 13.3 14.0 89 1.0 WNW 20 28 11 15 1020.6 1020.5 0.0
29/11:00pm 15.7 13.4 14.1 90 0.9 WNW 19 24 10 13 1020.5 1020.4 0.0
29/10:30pm 15.5 13.6 14.2 92 0.7 WNW 17 22 9 12 1020.5 1020.4 0.0
29/10:00pm 15.7 13.8 14.2 91 0.8 NW 17 19 9 10 1020.5 1020.4 0.0
29/09:30pm 15.6 13.3 14.0 90 0.9 WNW 19 22 10 12 1020.3 1020.2 0.0
29/09:00pm 15.6 13.3 14.0 90 0.9 WNW 19 24 10 13 1020.0 1019.9 0.0
29/08:30pm 15.4 13.3 13.6 89 1.0 WNW 17 24 9 13 1019.6 1019.5 0.0

Other Formats:

Comma delimited format used in spreadsheet applications
http://www.bom.gov.au/fwo/IDT60801/IDT60801.95957.axf

JavaScript Object Notation format (JSON) in row-major order
http://www.bom.gov.au/fwo/IDT60801/IDT60801.95957.json